sensor_id;sensor_type;location;lat;lon;timestamp;pressure;altitude;pressure_sealevel;temperature;humidity
47785;BME280;35233;55.686;37.848;2024-01-27T00:01:24;99564.34;;;18.82;33.09
47785;BME280;35233;55.686;37.848;2024-01-27T00:03:50;99564.47;;;18.80;33.82
47785;BME280;35233;55.686;37.848;2024-01-27T00:06:15;99566.28;;;18.80;34.30
47785;BME280;35233;55.686;37.848;2024-01-27T00:08:41;99564.28;;;18.83;34.16
47785;BME280;35233;55.686;37.848;2024-01-27T00:11:07;99561.78;;;18.80;34.06
47785;BME280;35233;55.686;37.848;2024-01-27T00:13:32;99558.34;;;18.78;33.68
47785;BME280;35233;55.686;37.848;2024-01-27T00:15:58;99559.88;;;18.82;33.06
47785;BME280;35233;55.686;37.848;2024-01-27T00:18:24;99562.66;;;18.81;33.29
47785;BME280;35233;55.686;37.848;2024-01-27T00:20:49;99564.34;;;18.82;32.99
47785;BME280;35233;55.686;37.848;2024-01-27T00:23:15;99566.19;;;18.81;32.78
47785;BME280;35233;55.686;37.848;2024-01-27T00:25:40;99560.94;;;18.80;32.72
47785;BME280;35233;55.686;37.848;2024-01-27T00:28:06;99567.91;;;18.82;32.09
47785;BME280;35233;55.686;37.848;2024-01-27T00:30:32;99565.41;;;18.79;32.38
47785;BME280;35233;55.686;37.848;2024-01-27T00:32:57;99560.75;;;18.83;32.33
47785;BME280;35233;55.686;37.848;2024-01-27T00:35:23;99558.06;;;18.83;32.16
47785;BME280;35233;55.686;37.848;2024-01-27T00:37:48;99558.06;;;18.83;31.88
47785;BME280;35233;55.686;37.848;2024-01-27T00:40:15;99553.66;;;18.82;31.57
47785;BME280;35233;55.686;37.848;2024-01-27T00:42:41;99558.06;;;18.83;31.91
47785;BME280;35233;55.686;37.848;2024-01-27T00:45:07;99554.53;;;18.82;31.96
47785;BME280;35233;55.686;37.848;2024-01-27T00:47:32;99554.69;;;18.79;31.41
47785;BME280;35233;55.686;37.848;2024-01-27T00:49:58;99566.19;;;18.81;31.40
47785;BME280;35233;55.686;37.848;2024-01-27T00:52:24;99564.47;;;18.80;31.24
47785;BME280;35233;55.686;37.848;2024-01-27T00:54:49;99570.88;;;18.77;31.59
47785;BME280;35233;55.686;37.848;2024-01-27T00:57:15;99564.84;;;18.74;31.26
47785;BME280;35233;55.686;37.848;2024-01-27T00:59:41;99571.72;;;18.78;31.15
47785;BME280;35233;55.686;37.848;2024-01-27T01:02:07;99570.69;;;18.81;31.56
47785;BME280;35233;55.686;37.848;2024-01-27T01:04:33;99555.88;;;18.75;31.31
47785;BME280;35233;55.686;37.848;2024-01-27T01:06:59;99558.34;;;18.78;31.52
47785;BME280;35233;55.686;37.848;2024-01-27T01:09:24;99566.28;;;18.80;31.18
47785;BME280;35233;55.686;37.848;2024-01-27T01:11:51;99562.00;;;18.77;31.28
47785;BME280;35233;55.686;37.848;2024-01-27T01:14:16;99566.47;;;18.76;30.94
47785;BME280;35233;55.686;37.848;2024-01-27T01:16:42;99562.00;;;18.77;30.96
47785;BME280;35233;55.686;37.848;2024-01-27T01:19:08;99566.47;;;18.76;30.90
47785;BME280;35233;55.686;37.848;2024-01-27T01:21:33;99569.81;;;18.80;30.73
47785;BME280;35233;55.686;37.848;2024-01-27T01:23:59;99564.00;;;18.73;30.72
47785;BME280;35233;55.686;37.848;2024-01-27T01:26:25;99570.69;;;18.81;30.98
47785;BME280;35233;55.686;37.848;2024-01-27T01:28:51;99572.69;;;18.77;31.09
47785;BME280;35233;55.686;37.848;2024-01-27T01:31:17;99585.09;;;18.78;30.72
47785;BME280;35233;55.686;37.848;2024-01-27T01:33:43;99576.09;;;18.79;30.81
47785;BME280;35233;55.686;37.848;2024-01-27T01:36:09;99569.16;;;18.76;30.47
47785;BME280;35233;55.686;37.848;2024-01-27T01:38:35;99584.13;;;18.79;30.91
47785;BME280;35233;55.686;37.848;2024-01-27T01:41:00;99576.09;;;18.79;30.63
47785;BME280;35233;55.686;37.848;2024-01-27T01:43:26;99569.34;;;18.73;30.53
47785;BME280;35233;55.686;37.848;2024-01-27T01:45:52;99569.16;;;18.76;30.78
47785;BME280;35233;55.686;37.848;2024-01-27T01:48:21;99568.97;;;18.80;30.69
47785;BME280;35233;55.686;37.848;2024-01-27T01:50:46;99571.63;;;18.80;30.25
47785;BME280;35233;55.686;37.848;2024-01-27T01:53:13;99573.34;;;18.81;30.20
47785;BME280;35233;55.686;37.848;2024-01-27T01:55:39;99572.50;;;18.80;30.68
47785;BME280;35233;55.686;37.848;2024-01-27T01:58:05;99570.75;;;18.79;30.53
47785;BME280;35233;55.686;37.848;2024-01-27T02:00:31;99571.63;;;18.80;30.62
47785;BME280;35233;55.686;37.848;2024-01-27T02:02:57;99575.06;;;18.82;30.43
47785;BME280;35233;55.686;37.848;2024-01-27T02:05:23;99570.75;;;18.79;30.53
47785;BME280;35233;55.686;37.848;2024-01-27T02:07:48;99574.19;;;18.81;30.39
47785;BME280;35233;55.686;37.848;2024-01-27T02:10:15;99576.88;;;18.81;29.95
47785;BME280;35233;55.686;37.848;2024-01-27T02:12:42;99585.97;;;18.78;30.20
47785;BME280;35233;55.686;37.848;2024-01-27T02:15:17;99585.88;;;18.80;29.96
47785;BME280;35233;55.686;37.848;2024-01-27T02:17:43;99577.00;;;18.80;29.85
47785;BME280;35233;55.686;37.848;2024-01-27T02:20:09;99599.25;;;18.80;30.09
47785;BME280;35233;55.686;37.848;2024-01-27T02:22:35;99594.75;;;18.81;29.99
47785;BME280;35233;55.686;37.848;2024-01-27T02:25:02;99592.09;;;18.81;30.21
47785;BME280;35233;55.686;37.848;2024-01-27T02:27:28;99599.16;;;18.82;30.11
47785;BME280;35233;55.686;37.848;2024-01-27T02:29:54;99604.50;;;18.82;29.76
47785;BME280;35233;55.686;37.848;2024-01-27T02:32:20;99604.63;;;18.80;30.07
47785;BME280;35233;55.686;37.848;2024-01-27T02:34:45;99602.13;;;18.77;30.11
47785;BME280;35233;55.686;37.848;2024-01-27T02:37:12;99615.31;;;18.80;29.79
47785;BME280;35233;55.686;37.848;2024-01-27T02:39:37;99599.47;;;18.77;29.67
47785;BME280;35233;55.686;37.848;2024-01-27T02:42:03;99602.97;;;18.77;30.11
47785;BME280;35233;55.686;37.848;2024-01-27T02:44:29;99618.00;;;18.80;30.11
47785;BME280;35233;55.686;37.848;2024-01-27T02:46:55;99606.50;;;18.78;29.84
47785;BME280;35233;55.686;37.848;2024-01-27T02:49:20;99618.19;;;18.77;29.67
47785;BME280;35233;55.686;37.848;2024-01-27T02:51:46;99613.69;;;18.77;30.05
47785;BME280;35233;55.686;37.848;2024-01-27T02:54:13;99617.22;;;18.78;29.50
47785;BME280;35233;55.686;37.848;2024-01-27T02:56:38;99608.53;;;18.74;29.87
47785;BME280;35233;55.686;37.848;2024-01-27T02:59:04;99620.00;;;18.76;29.95
47785;BME280;35233;55.686;37.848;2024-01-27T03:01:29;99626.22;;;18.77;29.96
47785;BME280;35233;55.686;37.848;2024-01-27T03:03:55;99623.72;;;18.74;29.68
47785;BME280;35233;55.686;37.848;2024-01-27T03:06:21;99635.19;;;18.76;29.64
47785;BME280;35233;55.686;37.848;2024-01-27T03:08:46;99635.09;;;18.77;29.54
47785;BME280;35233;55.686;37.848;2024-01-27T03:11:12;99630.72;;;18.76;29.89
47785;BME280;35233;55.686;37.848;2024-01-27T03:13:38;99625.56;;;18.73;29.39
47785;BME280;35233;55.686;37.848;2024-01-27T03:16:10;99626.47;;;18.72;29.41
47785;BME280;35233;55.686;37.848;2024-01-27T03:18:35;99621.22;;;18.71;29.63
47785;BME280;35233;55.686;37.848;2024-01-27T03:21:03;99624.47;;;18.76;29.75
47785;BME280;35233;55.686;37.848;2024-01-27T03:23:28;99618.25;;;18.75;29.61
47785;BME280;35233;55.686;37.848;2024-01-27T03:25:54;99614.84;;;18.73;29.21
47785;BME280;35233;55.686;37.848;2024-01-27T03:28:20;99628.28;;;18.72;29.48
47785;BME280;35233;55.686;37.848;2024-01-27T03:30:46;99632.00;;;18.69;29.63
47785;BME280;35233;55.686;37.848;2024-01-27T03:33:11;99635.53;;;18.70;29.60
47785;BME280;35233;55.686;37.848;2024-01-27T03:35:39;99634.47;;;18.72;29.64
47785;BME280;35233;55.686;37.848;2024-01-27T03:38:05;99643.47;;;18.71;29.45
47785;BME280;35233;55.686;37.848;2024-01-27T03:40:31;99638.31;;;18.68;29.29
47785;BME280;35233;55.686;37.848;2024-01-27T03:42:57;99649.03;;;18.68;29.22
47785;BME280;35233;55.686;37.848;2024-01-27T03:45:22;99650.66;;;18.71;29.24
47785;BME280;35233;55.686;37.848;2024-01-27T03:47:48;99649.97;;;18.67;29.49
47785;BME280;35233;55.686;37.848;2024-01-27T03:50:14;99652.75;;;18.66;29.44
47785;BME280;35233;55.686;37.848;2024-01-27T03:52:41;99659.53;;;18.71;29.09
47785;BME280;35233;55.686;37.848;2024-01-27T03:55:06;99652.47;;;18.70;29.40
47785;BME280;35233;55.686;37.848;2024-01-27T03:57:32;99654.06;;;18.73;29.09
47785;BME280;35233;55.686;37.848;2024-01-27T03:59:58;99667.44;;;18.73;29.44
47785;BME280;35233;55.686;37.848;2024-01-27T04:02:23;99663.25;;;18.69;29.29
47785;BME280;35233;55.686;37.848;2024-01-27T04:04:49;99667.44;;;18.73;28.90
47785;BME280;35233;55.686;37.848;2024-01-27T04:07:15;99674.94;;;18.68;29.43
47785;BME280;35233;55.686;37.848;2024-01-27T04:09:41;99666.91;;;18.68;29.41
47785;BME280;35233;55.686;37.848;2024-01-27T04:12:10;99683.69;;;18.70;29.33
47785;BME280;35233;55.686;37.848;2024-01-27T04:14:36;99686.56;;;18.67;29.15
47785;BME280;35233;55.686;37.848;2024-01-27T04:17:02;99685.63;;;18.68;29.20
47785;BME280;35233;55.686;37.848;2024-01-27T04:19:27;99681.13;;;18.68;29.03
47785;BME280;35233;55.686;37.848;2024-01-27T04:21:58;99693.75;;;18.66;29.31
47785;BME280;35233;55.686;37.848;2024-01-27T04:24:24;99695.63;;;18.64;28.96
47785;BME280;35233;55.686;37.848;2024-01-27T04:26:50;99693.06;;;18.63;29.34
47785;BME280;35233;55.686;37.848;2024-01-27T04:29:15;99706.25;;;18.66;29.11
47785;BME280;35233;55.686;37.848;2024-01-27T04:31:41;99703.78;;;18.63;28.79
47785;BME280;35233;55.686;37.848;2024-01-27T04:34:07;99698.41;;;18.63;28.93
47785;BME280;35233;55.686;37.848;2024-01-27T04:36:33;99703.97;;;18.60;28.95
47785;BME280;35233;55.686;37.848;2024-01-27T04:38:59;99713.50;;;18.64;29.17
47785;BME280;35233;55.686;37.848;2024-01-27T04:41:24;99712.56;;;18.65;28.99
47785;BME280;35233;55.686;37.848;2024-01-27T04:43:50;99719.63;;;18.66;29.13
47785;BME280;35233;55.686;37.848;2024-01-27T04:46:16;99713.50;;;18.64;28.75
47785;BME280;35233;55.686;37.848;2024-01-27T04:48:42;99718.69;;;18.67;29.01
47785;BME280;35233;55.686;37.848;2024-01-27T04:51:08;99716.00;;;18.67;28.74
47785;BME280;35233;55.686;37.848;2024-01-27T04:53:34;99716.09;;;18.65;28.71
47785;BME280;35233;55.686;37.848;2024-01-27T04:55:59;99732.06;;;18.67;28.61
47785;BME280;35233;55.686;37.848;2024-01-27T04:58:25;99718.69;;;18.67;28.97
47785;BME280;35233;55.686;37.848;2024-01-27T05:00:51;99715.25;;;18.65;28.75
47785;BME280;35233;55.686;37.848;2024-01-27T05:03:16;99718.97;;;18.62;28.59
47785;BME280;35233;55.686;37.848;2024-01-27T05:05:43;99724.13;;;18.65;29.04
47785;BME280;35233;55.686;37.848;2024-01-27T05:08:09;99727.75;;;18.64;29.19
47785;BME280;35233;55.686;37.848;2024-01-27T05:10:35;99726.69;;;18.67;28.78
47785;BME280;35233;55.686;37.848;2024-01-27T05:13:02;99731.13;;;18.68;28.70
47785;BME280;35233;55.686;37.848;2024-01-27T05:15:27;99734.72;;;18.67;29.03
47785;BME280;35233;55.686;37.848;2024-01-27T05:17:53;99743.72;;;18.66;28.59
47785;BME280;35233;55.686;37.848;2024-01-27T05:20:19;99740.19;;;18.65;28.59
47785;BME280;35233;55.686;37.848;2024-01-27T05:22:45;99743.63;;;18.67;28.50
47785;BME280;35233;55.686;37.848;2024-01-27T05:25:11;99741.81;;;18.68;28.91
47785;BME280;35233;55.686;37.848;2024-01-27T05:27:38;99744.50;;;18.68;28.64
47785;BME280;35233;55.686;37.848;2024-01-27T05:30:06;99746.28;;;18.67;28.74
47785;BME280;35233;55.686;37.848;2024-01-27T05:32:31;99748.41;;;18.62;28.62
47785;BME280;35233;55.686;37.848;2024-01-27T05:34:57;99749.84;;;18.68;28.74
47785;BME280;35233;55.686;37.848;2024-01-27T05:37:23;99749.75;;;18.69;28.38
47785;BME280;35233;55.686;37.848;2024-01-27T05:39:48;99758.63;;;18.70;28.56
47785;BME280;35233;55.686;37.848;2024-01-27T05:42:14;99761.31;;;18.70;28.63
47785;BME280;35233;55.686;37.848;2024-01-27T05:44:40;99761.22;;;18.71;28.67
47785;BME280;35233;55.686;37.848;2024-01-27T05:47:06;99760.22;;;18.74;28.33
47785;BME280;35233;55.686;37.848;2024-01-27T05:49:32;99760.38;;;18.71;28.72
47785;BME280;35233;55.686;37.848;2024-01-27T05:51:58;99762.19;;;18.70;28.59
47785;BME280;35233;55.686;37.848;2024-01-27T05:54:24;99761.13;;;18.73;28.34
47785;BME280;35233;55.686;37.848;2024-01-27T05:56:50;99766.47;;;18.73;28.57
47785;BME280;35233;55.686;37.848;2024-01-27T05:59:16;99765.56;;;18.74;28.33
47785;BME280;35233;55.686;37.848;2024-01-27T06:01:41;99758.63;;;18.70;28.43
47785;BME280;35233;55.686;37.848;2024-01-27T06:04:09;99773.59;;;18.74;28.58
47785;BME280;35233;55.686;37.848;2024-01-27T06:06:38;99765.38;;;18.77;28.80
47785;BME280;35233;55.686;37.848;2024-01-27T06:09:03;99757.69;;;18.71;28.27
47785;BME280;35233;55.686;37.848;2024-01-27T06:11:29;99774.28;;;18.77;28.60
47785;BME280;35233;55.686;37.848;2024-01-27T06:13:55;99779.63;;;18.77;28.53
47785;BME280;35233;55.686;37.848;2024-01-27T06:16:22;99780.47;;;18.78;28.25
47785;BME280;35233;55.686;37.848;2024-01-27T06:18:48;99782.47;;;18.74;28.58
47785;BME280;35233;55.686;37.848;2024-01-27T06:21:14;99793.84;;;18.78;28.57
47785;BME280;35233;55.686;37.848;2024-01-27T06:23:40;99792.91;;;18.79;28.02
47785;BME280;35233;55.686;37.848;2024-01-27T06:26:09;99785.63;;;18.81;28.36
47785;BME280;35233;55.686;37.848;2024-01-27T06:28:37;99793.50;;;18.84;28.03
47785;BME280;35233;55.686;37.848;2024-01-27T06:31:04;99797.91;;;18.85;28.02
47785;BME280;35233;55.686;37.848;2024-01-27T06:33:30;99797.72;;;18.88;28.30
47785;BME280;35233;55.686;37.848;2024-01-27T06:35:55;99794.06;;;18.89;28.35
47785;BME280;35233;55.686;37.848;2024-01-27T06:38:21;99795.03;;;18.88;28.18
47785;BME280;35233;55.686;37.848;2024-01-27T06:40:47;99799.16;;;18.94;28.36
47785;BME280;35233;55.686;37.848;2024-01-27T06:43:13;99804.59;;;18.92;27.82
47785;BME280;35233;55.686;37.848;2024-01-27T06:45:41;99805.38;;;18.94;27.79
47785;BME280;35233;55.686;37.848;2024-01-27T06:48:07;99809.59;;;18.98;27.68
47785;BME280;35233;55.686;37.848;2024-01-27T06:50:33;99817.63;;;18.98;27.66
47785;BME280;35233;55.686;37.848;2024-01-27T06:52:59;99809.38;;;19.02;27.62
47785;BME280;35233;55.686;37.848;2024-01-27T06:55:26;99809.31;;;19.03;27.99
47785;BME280;35233;55.686;37.848;2024-01-27T06:57:52;99810.06;;;19.05;27.58
47785;BME280;35233;55.686;37.848;2024-01-27T07:00:18;99803.78;;;19.06;27.41
47785;BME280;35233;55.686;37.848;2024-01-27T07:02:45;99818.59;;;19.12;27.47
47785;BME280;35233;55.686;37.848;2024-01-27T07:05:11;99825.84;;;19.10;27.60
47785;BME280;35233;55.686;37.848;2024-01-27T07:07:37;99818.00;;;19.07;27.49
47785;BME280;35233;55.686;37.848;2024-01-27T07:10:03;99823.97;;;19.12;27.79
47785;BME280;35233;55.686;37.848;2024-01-27T07:12:34;99835.53;;;19.12;27.39
47785;BME280;35233;55.686;37.848;2024-01-27T07:15:07;99840.97;;;19.11;27.75
47785;BME280;35233;55.686;37.848;2024-01-27T07:17:33;99824.34;;;19.06;27.74
47785;BME280;35233;55.686;37.848;2024-01-27T07:20:22;99837.34;;;19.12;27.65
47785;BME280;35233;55.686;37.848;2024-01-27T07:22:51;99839.91;;;19.13;27.62
47785;BME280;35233;55.686;37.848;2024-01-27T07:25:17;99843.28;;;19.17;27.38
47785;BME280;35233;55.686;37.848;2024-01-27T07:27:42;99840.78;;;19.14;27.37
47785;BME280;35233;55.686;37.848;2024-01-27T07:30:12;99834.47;;;19.15;27.20
47785;BME280;35233;55.686;37.848;2024-01-27T07:32:41;99835.53;;;19.12;27.23
47785;BME280;35233;55.686;37.848;2024-01-27T07:35:07;99841.75;;;19.13;27.58
47785;BME280;35233;55.686;37.848;2024-01-27T07:37:33;99846.91;;;19.16;27.33
47785;BME280;35233;55.686;37.848;2024-01-27T07:40:02;99840.03;;;19.12;27.55
47785;BME280;35233;55.686;37.848;2024-01-27T07:42:27;99849.69;;;19.14;27.45
47785;BME280;35233;55.686;37.848;2024-01-27T07:44:53;99851.41;;;19.15;27.61
47785;BME280;35233;55.686;37.848;2024-01-27T07:47:19;99857.44;;;19.19;27.27
47785;BME280;35233;55.686;37.848;2024-01-27T07:49:44;99859.19;;;19.20;27.63
47785;BME280;35233;55.686;37.848;2024-01-27T07:52:10;99869.69;;;19.23;27.59
47785;BME280;35233;55.686;37.848;2024-01-27T07:54:36;99865.38;;;19.20;27.59
47785;BME280;35233;55.686;37.848;2024-01-27T07:57:04;99866.06;;;19.24;27.79
47785;BME280;35233;55.686;37.848;2024-01-27T07:59:30;99862.44;;;18.95;27.53
47785;BME280;35233;55.686;37.848;2024-01-27T08:01:56;99866.53;;;18.86;27.86
47785;BME280;35233;55.686;37.848;2024-01-27T08:04:22;99871.28;;;18.81;27.87
47785;BME280;35233;55.686;37.848;2024-01-27T08:06:48;99869.56;;;18.80;27.68
47785;BME280;35233;55.686;37.848;2024-01-27T08:09:15;99873.50;;;18.73;27.80
47785;BME280;35233;55.686;37.848;2024-01-27T08:11:41;99874.66;;;18.69;28.07
47785;BME280;35233;55.686;37.848;2024-01-27T08:14:07;99884.19;;;18.74;28.12
47785;BME280;35233;55.686;37.848;2024-01-27T08:16:32;99877.16;;;18.72;27.97
47785;BME280;35233;55.686;37.848;2024-01-27T08:18:58;99886.97;;;19.03;28.40
47785;BME280;35233;55.686;37.848;2024-01-27T08:21:24;99890.97;;;19.10;28.74
47785;BME280;35233;55.686;37.848;2024-01-27T08:23:49;99885.63;;;19.10;28.51
47785;BME280;35233;55.686;37.848;2024-01-27T08:26:15;99890.91;;;19.12;29.32
47785;BME280;35233;55.686;37.848;2024-01-27T08:28:40;99900.47;;;19.16;29.12
47785;BME280;35233;55.686;37.848;2024-01-27T08:31:06;99894.94;;;19.19;29.59
47785;BME280;35233;55.686;37.848;2024-01-27T08:33:32;99897.59;;;19.19;29.39
47785;BME280;35233;55.686;37.848;2024-01-27T08:35:58;99892.34;;;19.17;29.59
47785;BME280;35233;55.686;37.848;2024-01-27T08:38:23;99886.69;;;19.22;29.43
47785;BME280;35233;55.686;37.848;2024-01-27T08:40:49;99890.94;;;19.26;29.57
47785;BME280;35233;55.686;37.848;2024-01-27T08:43:14;99899.72;;;19.28;29.91
47785;BME280;35233;55.686;37.848;2024-01-27T08:45:41;99881.72;;;19.16;29.81
47785;BME280;35233;55.686;37.848;2024-01-27T08:48:07;99905.09;;;19.28;29.80
47785;BME280;35233;55.686;37.848;2024-01-27T08:50:33;99902.50;;;19.27;29.90
47785;BME280;35233;55.686;37.848;2024-01-27T08:52:59;99905.38;;;19.23;30.10
47785;BME280;35233;55.686;37.848;2024-01-27T08:55:24;99909.78;;;19.25;29.69
47785;BME280;35233;55.686;37.848;2024-01-27T08:57:50;99910.78;;;18.30;30.09
47785;BME280;35233;55.686;37.848;2024-01-27T09:00:16;99921.88;;;17.56;30.58
47785;BME280;35233;55.686;37.848;2024-01-27T09:02:43;99931.25;;;17.12;30.11
47785;BME280;35233;55.686;37.848;2024-01-27T09:05:08;99930.31;;;17.99;32.53
47785;BME280;35233;55.686;37.848;2024-01-27T09:07:34;99907.03;;;18.64;31.31
47785;BME280;35233;55.686;37.848;2024-01-27T09:10:00;99915.69;;;17.55;31.37
47785;BME280;35233;55.686;37.848;2024-01-27T09:12:26;99909.25;;;16.90;31.03
47785;BME280;35233;55.686;37.848;2024-01-27T09:14:52;99921.13;;;16.65;30.84
47785;BME280;35233;55.686;37.848;2024-01-27T09:17:20;99923.53;;;16.52;30.46
47785;BME280;35233;55.686;37.848;2024-01-27T09:19:45;99918.50;;;16.27;30.65
47785;BME280;35233;55.686;37.848;2024-01-27T09:22:11;99916.63;;;16.11;30.42
47785;BME280;35233;55.686;37.848;2024-01-27T09:24:36;99927.81;;;16.00;30.25
47785;BME280;35233;55.686;37.848;2024-01-27T09:27:03;99922.81;;;15.92;30.11
47785;BME280;35233;55.686;37.848;2024-01-27T09:29:29;99929.09;;;16.10;30.35
47785;BME280;35233;55.686;37.848;2024-01-27T09:31:55;99923.19;;;16.03;30.44
47785;BME280;35233;55.686;37.848;2024-01-27T09:34:23;99926.09;;;15.78;30.44
47785;BME280;35233;55.686;37.848;2024-01-27T09:36:48;99929.56;;;15.60;30.55
47785;BME280;35233;55.686;37.848;2024-01-27T09:39:23;99928.25;;;15.50;30.53
47785;BME280;35233;55.686;37.848;2024-01-27T09:42:13;99931.31;;;15.40;30.54
47785;BME280;35233;55.686;37.848;2024-01-27T09:44:39;99928.06;;;15.34;30.37
47785;BME280;35233;55.686;37.848;2024-01-27T09:47:13;99914.22;;;15.26;30.68
47785;BME280;35233;55.686;37.848;2024-01-27T09:49:52;99925.19;;;15.18;29.98
47785;BME280;35233;55.686;37.848;2024-01-27T09:52:20;99928.78;;;15.17;30.47
47785;BME280;35233;55.686;37.848;2024-01-27T09:54:46;99923.78;;;15.09;30.02
47785;BME280;35233;55.686;37.848;2024-01-27T09:57:11;99925.03;;;15.01;30.45
47785;BME280;35233;55.686;37.848;2024-01-27T09:59:40;99929.63;;;14.97;30.89
47785;BME280;35233;55.686;37.848;2024-01-27T10:02:11;99932.63;;;14.89;30.68
47785;BME280;35233;55.686;37.848;2024-01-27T10:04:40;99930.94;;;14.87;30.21
47785;BME280;35233;55.686;37.848;2024-01-27T10:07:06;99934.72;;;14.81;30.79
47785;BME280;35233;55.686;37.848;2024-01-27T10:09:31;99928.13;;;14.69;30.71
47785;BME280;35233;55.686;37.848;2024-01-27T10:12:00;99935.31;;;14.66;30.13
47785;BME280;35233;55.686;37.848;2024-01-27T10:14:37;99942.41;;;14.67;31.21
47785;BME280;35233;55.686;37.848;2024-01-27T10:17:03;99950.50;;;14.64;30.99
47785;BME280;35233;55.686;37.848;2024-01-27T10:19:28;99940.28;;;14.53;30.16
47785;BME280;35233;55.686;37.848;2024-01-27T10:22:00;99949.19;;;14.52;30.64
47785;BME280;35233;55.686;37.848;2024-01-27T10:24:26;99959.84;;;14.50;31.10
47785;BME280;35233;55.686;37.848;2024-01-27T10:26:59;99956.44;;;14.47;30.91
47785;BME280;35233;55.686;37.848;2024-01-27T10:29:25;99956.63;;;14.42;31.00
47785;BME280;35233;55.686;37.848;2024-01-27T10:31:50;99960.44;;;14.35;31.18
47785;BME280;35233;55.686;37.848;2024-01-27T10:34:20;99975.69;;;14.30;30.65
47785;BME280;35233;55.686;37.848;2024-01-27T10:36:45;99979.19;;;14.32;31.42
47785;BME280;35233;55.686;37.848;2024-01-27T10:39:20;99983.75;;;14.29;31.18
47785;BME280;35233;55.686;37.848;2024-01-27T10:41:46;99982.06;;;14.26;30.74
47785;BME280;35233;55.686;37.848;2024-01-27T10:44:14;99987.66;;;14.18;31.22
47785;BME280;35233;55.686;37.848;2024-01-27T10:46:43;99994.03;;;14.14;30.98
47785;BME280;35233;55.686;37.848;2024-01-27T10:49:12;99988.88;;;14.10;31.00
47785;BME280;35233;55.686;37.848;2024-01-27T10:51:54;99988.94;;;14.08;30.62
47785;BME280;35233;55.686;37.848;2024-01-27T10:54:27;99995.97;;;14.09;31.04
47785;BME280;35233;55.686;37.848;2024-01-27T10:56:55;99999.63;;;14.07;31.91
47785;BME280;35233;55.686;37.848;2024-01-27T10:59:21;99999.13;;;13.95;30.83
47785;BME280;35233;55.686;37.848;2024-01-27T11:01:49;100001.97;;;13.91;31.07
47785;BME280;35233;55.686;37.848;2024-01-27T11:04:21;99994.91;;;13.90;30.67
47785;BME280;35233;55.686;37.848;2024-01-27T11:06:48;100003.75;;;13.90;31.48
47785;BME280;35233;55.686;37.848;2024-01-27T11:09:14;100002.28;;;13.81;31.12
47785;BME280;35233;55.686;37.848;2024-01-27T11:11:44;100020.00;;;13.81;31.49
47785;BME280;35233;55.686;37.848;2024-01-27T11:14:11;100011.16;;;13.82;31.49
47785;BME280;35233;55.686;37.848;2024-01-27T11:16:37;100018.41;;;13.77;31.04
47785;BME280;35233;55.686;37.848;2024-01-27T11:19:11;100018.34;;;13.78;31.66
47785;BME280;35233;55.686;37.848;2024-01-27T11:21:40;100010.81;;;13.66;31.35
47785;BME280;35233;55.686;37.848;2024-01-27T11:24:18;100026.47;;;13.74;32.01
47785;BME280;35233;55.686;37.848;2024-01-27T11:26:44;100025.53;;;13.75;31.24
47785;BME280;35233;55.686;37.848;2024-01-27T11:29:10;100028.31;;;13.72;32.09
47785;BME280;35233;55.686;37.848;2024-01-27T11:31:44;100032.00;;;13.68;31.30
47785;BME280;35233;55.686;37.848;2024-01-27T11:34:11;100034.78;;;13.65;31.14
47785;BME280;35233;55.686;37.848;2024-01-27T11:36:43;100040.34;;;13.57;31.76
47785;BME280;35233;55.686;37.848;2024-01-27T11:39:31;100037.06;;;13.49;31.63
47785;BME280;35233;55.686;37.848;2024-01-27T11:42:10;100049.47;;;13.48;32.13
47785;BME280;35233;55.686;37.848;2024-01-27T11:44:40;100042.56;;;13.44;31.95
47785;BME280;35233;55.686;37.848;2024-01-27T11:47:19;100054.03;;;13.45;31.57
47785;BME280;35233;55.686;37.848;2024-01-27T11:50:11;100050.56;;;13.43;32.12
47785;BME280;35233;55.686;37.848;2024-01-27T11:52:39;100048.97;;;13.37;31.95
47785;BME280;35233;55.686;37.848;2024-01-27T11:55:05;100056.91;;;13.39;32.05
47785;BME280;35233;55.686;37.848;2024-01-27T11:57:31;100065.81;;;13.36;32.45
47785;BME280;35233;55.686;37.848;2024-01-27T11:59:56;100070.31;;;13.34;32.42
47785;BME280;35233;55.686;37.848;2024-01-27T12:02:29;100073.81;;;13.34;32.26
47785;BME280;35233;55.686;37.848;2024-01-27T12:05:04;100070.53;;;13.26;31.58
47785;BME280;35233;55.686;37.848;2024-01-27T12:07:33;100075.88;;;13.25;31.87
47785;BME280;35233;55.686;37.848;2024-01-27T12:10:10;100062.72;;;13.22;32.22
47785;BME280;35233;55.686;37.848;2024-01-27T12:12:38;100074.25;;;13.21;31.85
47785;BME280;35233;55.686;37.848;2024-01-27T12:15:04;100076.13;;;13.17;31.73
47785;BME280;35233;55.686;37.848;2024-01-27T12:17:30;100080.66;;;13.13;32.30
47785;BME280;35233;55.686;37.848;2024-01-27T12:19:55;100084.19;;;13.14;32.09
47785;BME280;35233;55.686;37.848;2024-01-27T12:22:26;100094.13;;;13.07;32.33
47785;BME280;35233;55.686;37.848;2024-01-27T12:24:55;100100.38;;;13.05;32.44
47785;BME280;35233;55.686;37.848;2024-01-27T12:27:22;100101.31;;;13.04;32.19
47785;BME280;35233;55.686;37.848;2024-01-27T12:29:48;100106.72;;;13.01;31.99
47785;BME280;35233;55.686;37.848;2024-01-27T12:32:17;100117.34;;;12.99;32.59
47785;BME280;35233;55.686;37.848;2024-01-27T12:34:43;100100.81;;;12.91;32.21
47785;BME280;35233;55.686;37.848;2024-01-27T12:37:11;100114.97;;;12.91;32.92
47785;BME280;35233;55.686;37.848;2024-01-27T12:39:42;100116.03;;;12.84;32.19
47785;BME280;35233;55.686;37.848;2024-01-27T12:42:08;100130.13;;;12.86;32.58
47785;BME280;35233;55.686;37.848;2024-01-27T12:44:34;100116.03;;;12.84;32.69
47785;BME280;35233;55.686;37.848;2024-01-27T12:47:00;100124.91;;;12.83;32.61